sensor_id;sensor_type;location;lat;lon;timestamp;P1;durP1;ratioP1;P2;durP2;ratioP2
35847;SDS011;22332;51.954;20.118;2022-11-21T00:00:00;93.50;;;41.20;;
35847;SDS011;22332;51.954;20.118;2022-11-21T00:03:02;91.10;;;40.10;;
35847;SDS011;22332;51.954;20.118;2022-11-21T00:06:05;95.40;;;38.90;;
35847;SDS011;22332;51.954;20.118;2022-11-21T00:09:08;101.90;;;41.00;;
35847;SDS011;22332;51.954;20.118;2022-11-21T00:12:10;105.80;;;42.70;;
35847;SDS011;22332;51.954;20.118;2022-11-21T00:15:13;107.50;;;44.40;;
35847;SDS011;22332;51.954;20.118;2022-11-21T00:18:16;98.30;;;41.40;;
35847;SDS011;22332;51.954;20.118;2022-11-21T00:21:18;105.40;;;43.10;;
35847;SDS011;22332;51.954;20.118;2022-11-21T00:24:21;106.70;;;43.40;;
35847;SDS011;22332;51.954;20.118;2022-11-21T00:27:24;96.10;;;41.50;;
35847;SDS011;22332;51.954;20.118;2022-11-21T00:30:26;103.60;;;40.90;;
35847;SDS011;22332;51.954;20.118;2022-11-21T00:33:29;93.80;;;39.60;;
35847;SDS011;22332;51.954;20.118;2022-11-21T00:36:32;102.60;;;41.20;;
35847;SDS011;22332;51.954;20.118;2022-11-21T00:39:35;95.30;;;39.00;;
35847;SDS011;22332;51.954;20.118;2022-11-21T00:42:37;97.10;;;37.80;;
35847;SDS011;22332;51.954;20.118;2022-11-21T00:45:40;95.70;;;37.80;;
35847;SDS011;22332;51.954;20.118;2022-11-21T00:48:43;92.10;;;38.40;;
35847;SDS011;22332;51.954;20.118;2022-11-21T00:51:45;93.60;;;37.70;;
35847;SDS011;22332;51.954;20.118;2022-11-21T00:54:48;104.20;;;40.30;;
35847;SDS011;22332;51.954;20.118;2022-11-21T00:57:51;98.70;;;38.40;;
35847;SDS011;22332;51.954;20.118;2022-11-21T01:01:01;88.10;;;37.90;;
35847;SDS011;22332;51.954;20.118;2022-11-21T01:04:05;90.70;;;38.60;;
35847;SDS011;22332;51.954;20.118;2022-11-21T01:07:08;97.80;;;38.90;;
35847;SDS011;22332;51.954;20.118;2022-11-21T01:10:10;82.70;;;35.70;;
35847;SDS011;22332;51.954;20.118;2022-11-21T01:13:13;88.00;;;36.20;;
35847;SDS011;22332;51.954;20.118;2022-11-21T01:16:16;86.60;;;35.50;;
35847;SDS011;22332;51.954;20.118;2022-11-21T01:19:20;83.10;;;35.50;;
35847;SDS011;22332;51.954;20.118;2022-11-21T01:22:23;77.70;;;32.10;;
35847;SDS011;22332;51.954;20.118;2022-11-21T01:25:26;78.50;;;32.30;;
35847;SDS011;22332;51.954;20.118;2022-11-21T01:28:28;86.90;;;35.00;;
35847;SDS011;22332;51.954;20.118;2022-11-21T01:31:31;85.40;;;36.80;;
35847;SDS011;22332;51.954;20.118;2022-11-21T01:34:34;86.50;;;35.40;;
35847;SDS011;22332;51.954;20.118;2022-11-21T01:37:37;91.60;;;37.40;;
35847;SDS011;22332;51.954;20.118;2022-11-21T01:40:39;92.70;;;36.90;;
35847;SDS011;22332;51.954;20.118;2022-11-21T01:43:42;92.30;;;35.80;;
35847;SDS011;22332;51.954;20.118;2022-11-21T01:46:45;89.50;;;35.40;;
35847;SDS011;22332;51.954;20.118;2022-11-21T01:49:48;82.70;;;34.90;;
35847;SDS011;22332;51.954;20.118;2022-11-21T01:52:52;91.30;;;35.60;;
35847;SDS011;22332;51.954;20.118;2022-11-21T01:55:55;94.30;;;35.10;;
35847;SDS011;22332;51.954;20.118;2022-11-21T01:58:58;86.50;;;35.20;;
35847;SDS011;22332;51.954;20.118;2022-11-21T02:02:04;81.70;;;33.90;;
35847;SDS011;22332;51.954;20.118;2022-11-21T02:05:10;81.90;;;47.10;;
35847;SDS011;22332;51.954;20.118;2022-11-21T02:08:17;81.90;;;34.20;;
35847;SDS011;22332;51.954;20.118;2022-11-21T02:11:24;82.60;;;33.50;;
35847;SDS011;22332;51.954;20.118;2022-11-21T02:14:32;83.20;;;34.40;;
35847;SDS011;22332;51.954;20.118;2022-11-21T02:17:37;81.60;;;34.40;;
35847;SDS011;22332;51.954;20.118;2022-11-21T02:20:40;86.70;;;34.10;;
35847;SDS011;22332;51.954;20.118;2022-11-21T02:23:49;88.30;;;34.10;;
35847;SDS011;22332;51.954;20.118;2022-11-21T02:26:58;80.80;;;32.90;;
35847;SDS011;22332;51.954;20.118;2022-11-21T02:30:01;75.00;;;32.30;;
35847;SDS011;22332;51.954;20.118;2022-11-21T02:33:05;75.50;;;32.00;;
35847;SDS011;22332;51.954;20.118;2022-11-21T02:36:30;77.50;;;32.00;;
35847;SDS011;22332;51.954;20.118;2022-11-21T02:39:39;75.80;;;30.90;;
35847;SDS011;22332;51.954;20.118;2022-11-21T02:42:44;67.90;;;27.30;;
35847;SDS011;22332;51.954;20.118;2022-11-21T02:45:52;76.10;;;29.50;;
35847;SDS011;22332;51.954;20.118;2022-11-21T02:48:55;81.70;;;31.60;;
35847;SDS011;22332;51.954;20.118;2022-11-21T02:51:59;83.70;;;34.50;;
35847;SDS011;22332;51.954;20.118;2022-11-21T02:55:01;76.60;;;31.70;;
35847;SDS011;22332;51.954;20.118;2022-11-21T02:58:04;76.90;;;31.40;;
35847;SDS011;22332;51.954;20.118;2022-11-21T03:01:07;79.10;;;32.40;;
35847;SDS011;22332;51.954;20.118;2022-11-21T03:04:10;79.80;;;32.70;;
35847;SDS011;22332;51.954;20.118;2022-11-21T03:07:13;76.60;;;31.00;;
35847;SDS011;22332;51.954;20.118;2022-11-21T03:10:16;74.00;;;31.40;;
35847;SDS011;22332;51.954;20.118;2022-11-21T03:13:19;78.50;;;31.00;;
35847;SDS011;22332;51.954;20.118;2022-11-21T03:16:21;76.80;;;30.70;;
35847;SDS011;22332;51.954;20.118;2022-11-21T03:19:24;81.00;;;31.20;;
35847;SDS011;22332;51.954;20.118;2022-11-21T03:22:27;73.30;;;30.30;;
35847;SDS011;22332;51.954;20.118;2022-11-21T03:25:29;74.80;;;30.10;;
35847;SDS011;22332;51.954;20.118;2022-11-21T03:28:32;76.60;;;31.80;;
35847;SDS011;22332;51.954;20.118;2022-11-21T03:31:35;68.40;;;28.10;;
35847;SDS011;22332;51.954;20.118;2022-11-21T03:34:37;74.90;;;30.20;;
35847;SDS011;22332;51.954;20.118;2022-11-21T03:37:40;76.30;;;30.90;;
35847;SDS011;22332;51.954;20.118;2022-11-21T03:40:43;75.60;;;30.60;;
35847;SDS011;22332;51.954;20.118;2022-11-21T03:43:46;75.60;;;30.70;;
35847;SDS011;22332;51.954;20.118;2022-11-21T03:46:48;73.70;;;30.60;;
35847;SDS011;22332;51.954;20.118;2022-11-21T03:49:52;74.20;;;29.70;;
35847;SDS011;22332;51.954;20.118;2022-11-21T03:52:54;72.20;;;30.60;;
35847;SDS011;22332;51.954;20.118;2022-11-21T03:55:57;68.70;;;30.00;;
35847;SDS011;22332;51.954;20.118;2022-11-21T03:59:00;73.40;;;28.80;;
35847;SDS011;22332;51.954;20.118;2022-11-21T04:02:03;74.70;;;28.40;;
35847;SDS011;22332;51.954;20.118;2022-11-21T04:05:06;75.60;;;29.80;;
35847;SDS011;22332;51.954;20.118;2022-11-21T04:08:09;72.40;;;29.00;;
35847;SDS011;22332;51.954;20.118;2022-11-21T04:11:12;74.30;;;28.90;;
35847;SDS011;22332;51.954;20.118;2022-11-21T04:14:15;71.10;;;30.10;;
35847;SDS011;22332;51.954;20.118;2022-11-21T04:17:17;68.90;;;28.20;;
35847;SDS011;22332;51.954;20.118;2022-11-21T04:20:20;69.10;;;28.00;;
35847;SDS011;22332;51.954;20.118;2022-11-21T04:23:23;72.40;;;30.30;;
35847;SDS011;22332;51.954;20.118;2022-11-21T04:26:25;64.40;;;28.10;;
35847;SDS011;22332;51.954;20.118;2022-11-21T04:29:28;68.40;;;29.10;;
35847;SDS011;22332;51.954;20.118;2022-11-21T04:32:30;71.10;;;28.80;;
35847;SDS011;22332;51.954;20.118;2022-11-21T04:35:33;69.90;;;27.70;;
35847;SDS011;22332;51.954;20.118;2022-11-21T04:38:36;70.10;;;28.40;;
35847;SDS011;22332;51.954;20.118;2022-11-21T04:41:38;67.80;;;27.50;;
35847;SDS011;22332;51.954;20.118;2022-11-21T04:44:41;71.20;;;29.20;;
35847;SDS011;22332;51.954;20.118;2022-11-21T04:47:44;76.60;;;28.60;;
35847;SDS011;22332;51.954;20.118;2022-11-21T04:50:47;83.00;;;32.90;;
35847;SDS011;22332;51.954;20.118;2022-11-21T04:53:50;81.50;;;31.50;;
35847;SDS011;22332;51.954;20.118;2022-11-21T04:56:53;75.40;;;30.00;;
35847;SDS011;22332;51.954;20.118;2022-11-21T04:59:56;91.30;;;31.50;;
35847;SDS011;22332;51.954;20.118;2022-11-21T05:03:02;83.00;;;30.90;;
35847;SDS011;22332;51.954;20.118;2022-11-21T05:06:05;74.70;;;28.90;;
35847;SDS011;22332;51.954;20.118;2022-11-21T05:09:08;69.10;;;27.50;;
35847;SDS011;22332;51.954;20.118;2022-11-21T05:12:11;69.90;;;27.00;;
35847;SDS011;22332;51.954;20.118;2022-11-21T05:15:32;61.10;;;23.90;;
35847;SDS011;22332;51.954;20.118;2022-11-21T05:18:34;61.50;;;24.70;;
35847;SDS011;22332;51.954;20.118;2022-11-21T05:21:37;58.90;;;24.70;;
35847;SDS011;22332;51.954;20.118;2022-11-21T05:24:40;73.90;;;31.40;;
35847;SDS011;22332;51.954;20.118;2022-11-21T05:27:42;103.90;;;46.40;;
35847;SDS011;22332;51.954;20.118;2022-11-21T05:30:45;78.20;;;32.90;;
35847;SDS011;22332;51.954;20.118;2022-11-21T05:33:48;74.60;;;30.10;;
35847;SDS011;22332;51.954;20.118;2022-11-21T05:36:52;177.40;;;71.90;;
35847;SDS011;22332;51.954;20.118;2022-11-21T05:39:58;99.40;;;44.20;;
35847;SDS011;22332;51.954;20.118;2022-11-21T05:43:00;92.90;;;43.10;;
35847;SDS011;22332;51.954;20.118;2022-11-21T05:46:22;98.10;;;42.00;;
35847;SDS011;22332;51.954;20.118;2022-11-21T05:49:26;76.50;;;31.40;;
35847;SDS011;22332;51.954;20.118;2022-11-21T05:52:28;71.90;;;29.40;;
35847;SDS011;22332;51.954;20.118;2022-11-21T05:55:32;68.40;;;28.90;;
35847;SDS011;22332;51.954;20.118;2022-11-21T05:58:35;73.90;;;30.40;;
35847;SDS011;22332;51.954;20.118;2022-11-21T06:01:38;73.30;;;29.00;;
35847;SDS011;22332;51.954;20.118;2022-11-21T06:04:58;69.20;;;28.40;;
35847;SDS011;22332;51.954;20.118;2022-11-21T06:08:01;65.60;;;26.90;;
35847;SDS011;22332;51.954;20.118;2022-11-21T06:11:04;67.30;;;27.40;;
35847;SDS011;22332;51.954;20.118;2022-11-21T06:14:07;110.10;;;39.20;;
35847;SDS011;22332;51.954;20.118;2022-11-21T06:17:11;102.90;;;37.30;;
35847;SDS011;22332;51.954;20.118;2022-11-21T06:20:14;78.00;;;31.20;;
35847;SDS011;22332;51.954;20.118;2022-11-21T06:23:17;75.00;;;29.20;;
35847;SDS011;22332;51.954;20.118;2022-11-21T06:26:20;87.50;;;35.00;;
35847;SDS011;22332;51.954;20.118;2022-11-21T06:29:24;83.00;;;33.80;;
35847;SDS011;22332;51.954;20.118;2022-11-21T06:32:26;85.70;;;34.50;;
35847;SDS011;22332;51.954;20.118;2022-11-21T06:35:29;109.20;;;41.70;;
35847;SDS011;22332;51.954;20.118;2022-11-21T06:38:32;72.00;;;30.30;;
35847;SDS011;22332;51.954;20.118;2022-11-21T06:41:35;74.00;;;29.80;;
35847;SDS011;22332;51.954;20.118;2022-11-21T06:44:37;99.40;;;37.80;;
35847;SDS011;22332;51.954;20.118;2022-11-21T06:47:40;87.90;;;35.90;;
35847;SDS011;22332;51.954;20.118;2022-11-21T06:50:42;77.40;;;34.00;;
35847;SDS011;22332;51.954;20.118;2022-11-21T06:53:45;74.00;;;31.20;;
35847;SDS011;22332;51.954;20.118;2022-11-21T06:56:56;79.20;;;32.30;;
35847;SDS011;22332;51.954;20.118;2022-11-21T06:59:59;76.10;;;33.10;;
35847;SDS011;22332;51.954;20.118;2022-11-21T07:03:02;73.70;;;33.50;;
35847;SDS011;22332;51.954;20.118;2022-11-21T07:06:05;71.30;;;32.40;;
35847;SDS011;22332;51.954;20.118;2022-11-21T07:09:08;65.60;;;30.60;;
35847;SDS011;22332;51.954;20.118;2022-11-21T07:12:11;64.50;;;29.40;;
35847;SDS011;22332;51.954;20.118;2022-11-21T07:15:32;64.20;;;28.90;;
35847;SDS011;22332;51.954;20.118;2022-11-21T07:18:34;58.20;;;26.40;;
35847;SDS011;22332;51.954;20.118;2022-11-21T07:21:37;56.10;;;26.70;;
35847;SDS011;22332;51.954;20.118;2022-11-21T07:24:40;55.30;;;26.80;;
35847;SDS011;22332;51.954;20.118;2022-11-21T07:27:43;56.60;;;26.60;;
35847;SDS011;22332;51.954;20.118;2022-11-21T07:30:45;53.00;;;25.00;;
35847;SDS011;22332;51.954;20.118;2022-11-21T07:33:48;50.60;;;23.80;;
35847;SDS011;22332;51.954;20.118;2022-11-21T07:36:51;54.80;;;25.30;;
35847;SDS011;22332;51.954;20.118;2022-11-21T07:39:54;50.60;;;23.30;;
35847;SDS011;22332;51.954;20.118;2022-11-21T07:42:59;52.90;;;25.00;;
35847;SDS011;22332;51.954;20.118;2022-11-21T07:46:03;71.00;;;31.80;;
35847;SDS011;22332;51.954;20.118;2022-11-21T07:49:05;57.20;;;26.60;;
35847;SDS011;22332;51.954;20.118;2022-11-21T07:52:08;48.50;;;24.50;;
35847;SDS011;22332;51.954;20.118;2022-11-21T07:55:11;50.80;;;25.30;;
35847;SDS011;22332;51.954;20.118;2022-11-21T07:58:14;50.70;;;25.00;;
35847;SDS011;22332;51.954;20.118;2022-11-21T08:01:17;48.80;;;25.20;;
35847;SDS011;22332;51.954;20.118;2022-11-21T08:04:20;48.20;;;25.60;;
35847;SDS011;22332;51.954;20.118;2022-11-21T08:07:23;57.10;;;27.30;;
35847;SDS011;22332;51.954;20.118;2022-11-21T08:10:26;56.40;;;27.70;;
35847;SDS011;22332;51.954;20.118;2022-11-21T08:13:28;56.60;;;28.20;;
35847;SDS011;22332;51.954;20.118;2022-11-21T08:16:31;58.10;;;29.00;;
35847;SDS011;22332;51.954;20.118;2022-11-21T08:19:34;58.00;;;29.90;;
35847;SDS011;22332;51.954;20.118;2022-11-21T08:22:39;121.40;;;56.80;;
35847;SDS011;22332;51.954;20.118;2022-11-21T08:25:42;127.00;;;55.70;;
35847;SDS011;22332;51.954;20.118;2022-11-21T08:28:45;80.10;;;35.50;;
35847;SDS011;22332;51.954;20.118;2022-11-21T08:31:48;104.30;;;39.70;;
35847;SDS011;22332;51.954;20.118;2022-11-21T08:34:51;104.50;;;39.70;;
35847;SDS011;22332;51.954;20.118;2022-11-21T08:37:55;120.70;;;43.60;;
35847;SDS011;22332;51.954;20.118;2022-11-21T08:40:58;140.20;;;44.70;;
35847;SDS011;22332;51.954;20.118;2022-11-21T08:44:19;92.00;;;36.00;;
35847;SDS011;22332;51.954;20.118;2022-11-21T08:47:21;97.80;;;37.30;;
35847;SDS011;22332;51.954;20.118;2022-11-21T08:50:24;68.30;;;33.20;;
35847;SDS011;22332;51.954;20.118;2022-11-21T08:53:28;57.50;;;29.60;;
35847;SDS011;22332;51.954;20.118;2022-11-21T08:56:30;83.30;;;33.00;;
35847;SDS011;22332;51.954;20.118;2022-11-21T08:59:33;65.90;;;29.00;;
35847;SDS011;22332;51.954;20.118;2022-11-21T09:02:47;83.10;;;32.60;;
35847;SDS011;22332;51.954;20.118;2022-11-21T09:05:50;59.90;;;28.40;;
35847;SDS011;22332;51.954;20.118;2022-11-21T09:08:53;63.40;;;30.50;;
35847;SDS011;22332;51.954;20.118;2022-11-21T09:11:55;68.20;;;31.00;;
35847;SDS011;22332;51.954;20.118;2022-11-21T09:14:58;80.70;;;34.40;;
35847;SDS011;22332;51.954;20.118;2022-11-21T09:18:19;62.10;;;29.30;;
35847;SDS011;22332;51.954;20.118;2022-11-21T09:21:22;72.40;;;29.00;;
35847;SDS011;22332;51.954;20.118;2022-11-21T09:24:24;104.90;;;34.80;;
35847;SDS011;22332;51.954;20.118;2022-11-21T09:27:27;66.30;;;27.30;;
35847;SDS011;22332;51.954;20.118;2022-11-21T09:30:31;76.20;;;29.70;;
35847;SDS011;22332;51.954;20.118;2022-11-21T09:33:35;94.00;;;34.80;;
35847;SDS011;22332;51.954;20.118;2022-11-21T09:36:37;91.40;;;34.60;;
35847;SDS011;22332;51.954;20.118;2022-11-21T09:39:40;93.60;;;34.60;;
35847;SDS011;22332;51.954;20.118;2022-11-21T09:42:51;84.90;;;33.40;;
35847;SDS011;22332;51.954;20.118;2022-11-21T09:46:04;96.50;;;35.20;;
35847;SDS011;22332;51.954;20.118;2022-11-21T09:49:10;86.70;;;33.40;;
35847;SDS011;22332;51.954;20.118;2022-11-21T09:52:15;68.50;;;30.10;;
35847;SDS011;22332;51.954;20.118;2022-11-21T09:55:25;72.50;;;31.10;;
35847;SDS011;22332;51.954;20.118;2022-11-21T09:58:34;85.20;;;35.10;;
35847;SDS011;22332;51.954;20.118;2022-11-21T10:01:40;61.20;;;29.40;;
35847;SDS011;22332;51.954;20.118;2022-11-21T10:04:43;83.20;;;34.00;;
35847;SDS011;22332;51.954;20.118;2022-11-21T10:07:49;90.10;;;35.50;;
35847;SDS011;22332;51.954;20.118;2022-11-21T10:11:02;82.70;;;33.60;;
35847;SDS011;22332;51.954;20.118;2022-11-21T10:14:15;107.30;;;38.00;;
35847;SDS011;22332;51.954;20.118;2022-11-21T10:17:30;99.50;;;37.10;;
35847;SDS011;22332;51.954;20.118;2022-11-21T10:20:44;63.50;;;28.00;;
35847;SDS011;22332;51.954;20.118;2022-11-21T10:23:59;65.70;;;29.50;;
35847;SDS011;22332;51.954;20.118;2022-11-21T10:27:13;69.20;;;31.60;;
35847;SDS011;22332;51.954;20.118;2022-11-21T10:30:20;73.90;;;32.60;;
35847;SDS011;22332;51.954;20.118;2022-11-21T10:33:25;78.30;;;34.60;;
35847;SDS011;22332;51.954;20.118;2022-11-21T10:36:32;61.00;;;29.50;;
35847;SDS011;22332;51.954;20.118;2022-11-21T10:39:41;52.80;;;27.60;;
35847;SDS011;22332;51.954;20.118;2022-11-21T10:42:48;50.10;;;26.20;;
35847;SDS011;22332;51.954;20.118;2022-11-21T10:45:54;47.80;;;25.20;;
35847;SDS011;22332;51.954;20.118;2022-11-21T10:48:57;46.60;;;26.50;;
35847;SDS011;22332;51.954;20.118;2022-11-21T10:52:04;44.20;;;25.50;;
35847;SDS011;22332;51.954;20.118;2022-11-21T10:55:12;40.30;;;22.40;;
35847;SDS011;22332;51.954;20.118;2022-11-21T10:58:16;44.30;;;25.80;;
35847;SDS011;22332;51.954;20.118;2022-11-21T11:01:20;44.40;;;23.00;;
35847;SDS011;22332;51.954;20.118;2022-11-21T11:04:26;44.10;;;22.30;;
35847;SDS011;22332;51.954;20.118;2022-11-21T11:07:29;63.90;;;29.60;;
35847;SDS011;22332;51.954;20.118;2022-11-21T11:10:33;48.20;;;24.40;;
35847;SDS011;22332;51.954;20.118;2022-11-21T11:13:49;46.40;;;24.30;;
35847;SDS011;22332;51.954;20.118;2022-11-21T11:16:57;56.40;;;28.80;;
35847;SDS011;22332;51.954;20.118;2022-11-21T11:20:00;45.70;;;24.90;;
35847;SDS011;22332;51.954;20.118;2022-11-21T11:23:14;52.80;;;27.70;;
35847;SDS011;22332;51.954;20.118;2022-11-21T11:26:19;46.30;;;25.10;;
35847;SDS011;22332;51.954;20.118;2022-11-21T11:29:28;54.20;;;28.70;;
35847;SDS011;22332;51.954;20.118;2022-11-21T11:32:32;84.10;;;39.60;;
35847;SDS011;22332;51.954;20.118;2022-11-21T11:35:41;60.10;;;30.50;;
35847;SDS011;22332;51.954;20.118;2022-11-21T11:38:46;68.70;;;33.80;;
35847;SDS011;22332;51.954;20.118;2022-11-21T11:45:50;48.40;;;26.10;;
35847;SDS011;22332;51.954;20.118;2022-11-21T11:49:31;45.00;;;24.20;;
35847;SDS011;22332;51.954;20.118;2022-11-21T11:53:01;104.30;;;49.90;;
35847;SDS011;22332;51.954;20.118;2022-11-21T11:56:10;52.00;;;26.90;;
35847;SDS011;22332;51.954;20.118;2022-11-21T11:59:19;53.30;;;29.10;;
35847;SDS011;22332;51.954;20.118;2022-11-21T12:02:26;50.30;;;26.20;;
35847;SDS011;22332;51.954;20.118;2022-11-21T12:05:51;46.40;;;24.80;;
35847;SDS011;22332;51.954;20.118;2022-11-21T12:09:00;50.40;;;27.50;;
35847;SDS011;22332;51.954;20.118;2022-11-21T12:12:08;49.60;;;26.40;;
35847;SDS011;22332;51.954;20.118;2022-11-21T12:15:17;52.00;;;27.90;;
35847;SDS011;22332;51.954;20.118;2022-11-21T12:18:47;47.80;;;25.80;;
35847;SDS011;22332;51.954;20.118;2022-11-21T12:21:54;51.50;;;28.30;;
35847;SDS011;22332;51.954;20.118;2022-11-21T12:24:57;51.40;;;29.00;;
35847;SDS011;22332;51.954;20.118;2022-11-21T12:28:00;50.90;;;28.10;;
35847;SDS011;22332;51.954;20.118;2022-11-21T12:31:12;50.50;;;28.50;;
35847;SDS011;22332;51.954;20.118;2022-11-21T12:34:24;48.30;;;27.00;;
35847;SDS011;22332;51.954;20.118;2022-11-21T12:37:40;51.20;;;27.50;;
35847;SDS011;22332;51.954;20.118;2022-11-21T12:40:56;46.60;;;26.50;;
35847;SDS011;22332;51.954;20.118;2022-11-21T12:44:30;51.20;;;27.00;;
35847;SDS011;22332;51.954;20.118;2022-11-21T12:47:50;55.90;;;28.40;;
35847;SDS011;22332;51.954;20.118;2022-11-21T12:51:36;50.80;;;26.70;;
35847;SDS011;22332;51.954;20.118;2022-11-21T12:55:12;54.90;;;28.50;;
35847;SDS011;22332;51.954;20.118;2022-11-21T12:58:21;54.30;;;28.50;;
35847;SDS011;22332;51.954;20.118;2022-11-21T13:01:32;55.20;;;28.60;;
35847;SDS011;22332;51.954;20.118;2022-11-21T13:04:40;51.70;;;29.70;;
35847;SDS011;22332;51.954;20.118;2022-11-21T13:07:46;54.70;;;30.20;;
35847;SDS011;22332;51.954;20.118;2022-11-21T13:10:51;52.80;;;30.40;;
35847;SDS011;22332;51.954;20.118;2022-11-21T13:14:23;57.60;;;33.10;;
35847;SDS011;22332;51.954;20.118;2022-11-21T13:17:39;57.90;;;30.60;;
35847;SDS011;22332;51.954;20.118;2022-11-21T13:20:46;57.40;;;31.30;;
35847;SDS011;22332;51.954;20.118;2022-11-21T13:23:51;54.00;;;29.40;;
35847;SDS011;22332;51.954;20.118;2022-11-21T13:26:53;56.60;;;29.80;;
35847;SDS011;22332;51.954;20.118;2022-11-21T13:36:51;53.30;;;28.40;;
35847;SDS011;22332;51.954;20.118;2022-11-21T13:39:54;47.80;;;26.20;;
35847;SDS011;22332;51.954;20.118;2022-11-21T13:43:36;52.80;;;28.60;;
35847;SDS011;22332;51.954;20.118;2022-11-21T13:46:58;55.60;;;30.70;;
35847;SDS011;22332;51.954;20.118;2022-11-21T13:50:04;54.90;;;30.10;;
35847;SDS011;22332;51.954;20.118;2022-11-21T13:53:30;55.30;;;30.60;;
35847;SDS011;22332;51.954;20.118;2022-11-21T13:56:57;51.90;;;29.80;;
35847;SDS011;22332;51.954;20.118;2022-11-21T14:00:22;56.90;;;30.00;;
35847;SDS011;22332;51.954;20.118;2022-11-21T14:03:39;55.70;;;30.90;;
35847;SDS011;22332;51.954;20.118;2022-11-21T14:06:55;54.40;;;29.80;;
35847;SDS011;22332;51.954;20.118;2022-11-21T14:10:29;59.40;;;32.90;;
35847;SDS011;22332;51.954;20.118;2022-11-21T14:13:36;56.30;;;30.20;;
35847;SDS011;22332;51.954;20.118;2022-11-21T14:16:47;50.50;;;28.80;;
35847;SDS011;22332;51.954;20.118;2022-11-21T14:19:55;56.00;;;29.30;;
35847;SDS011;22332;51.954;20.118;2022-11-21T14:23:00;55.70;;;28.40;;
35847;SDS011;22332;51.954;20.118;2022-11-21T14:26:09;47.60;;;25.20;;
35847;SDS011;22332;51.954;20.118;2022-11-21T14:29:16;45.10;;;25.80;;
35847;SDS011;22332;51.954;20.118;2022-11-21T14:32:24;52.30;;;28.80;;
35847;SDS011;22332;51.954;20.118;2022-11-21T14:35:28;51.30;;;26.70;;
35847;SDS011;22332;51.954;20.118;2022-11-21T14:38:31;54.80;;;30.30;;
35847;SDS011;22332;51.954;20.118;2022-11-21T14:41:37;56.30;;;31.00;;
35847;SDS011;22332;51.954;20.118;2022-11-21T14:44:40;62.40;;;33.40;;
35847;SDS011;22332;51.954;20.118;2022-11-21T14:47:47;59.70;;;31.90;;
35847;SDS011;22332;51.954;20.118;2022-11-21T14:50:51;72.70;;;39.20;;
35847;SDS011;22332;51.954;20.118;2022-11-21T14:53:54;102.60;;;49.50;;
35847;SDS011;22332;51.954;20.118;2022-11-21T14:56:57;92.60;;;45.00;;
35847;SDS011;22332;51.954;20.118;2022-11-21T15:00:02;101.10;;;47.90;;
35847;SDS011;22332;51.954;20.118;2022-11-21T15:03:15;120.90;;;59.90;;
35847;SDS011;22332;51.954;20.118;2022-11-21T15:06:20;64.70;;;34.60;;
35847;SDS011;22332;51.954;20.118;2022-11-21T15:09:23;69.30;;;36.30;;
35847;SDS011;22332;51.954;20.118;2022-11-21T15:12:27;72.60;;;37.30;;
35847;SDS011;22332;51.954;20.118;2022-11-21T15:15:34;79.20;;;40.50;;
35847;SDS011;22332;51.954;20.118;2022-11-21T15:18:39;74.60;;;39.00;;
35847;SDS011;22332;51.954;20.118;2022-11-21T15:21:43;78.40;;;40.40;;
35847;SDS011;22332;51.954;20.118;2022-11-21T15:24:46;74.50;;;39.00;;
35847;SDS011;22332;51.954;20.118;2022-11-21T15:27:49;91.40;;;44.20;;
35847;SDS011;22332;51.954;20.118;2022-11-21T15:34:26;79.90;;;40.20;;
35847;SDS011;22332;51.954;20.118;2022-11-21T15:37:32;74.50;;;37.80;;
35847;SDS011;22332;51.954;20.118;2022-11-21T15:40:35;65.20;;;35.10;;
35847;SDS011;22332;51.954;20.118;2022-11-21T15:43:39;68.50;;;37.70;;
35847;SDS011;22332;51.954;20.118;2022-11-21T15:46:43;71.70;;;36.80;;
35847;SDS011;22332;51.954;20.118;2022-11-21T15:49:46;69.20;;;36.10;;
35847;SDS011;22332;51.954;20.118;2022-11-21T15:52:49;71.10;;;36.70;;
35847;SDS011;22332;51.954;20.118;2022-11-21T15:55:53;93.30;;;46.90;;
35847;SDS011;22332;51.954;20.118;2022-11-21T15:58:55;90.30;;;44.90;;
35847;SDS011;22332;51.954;20.118;2022-11-21T16:01:58;83.00;;;42.00;;
35847;SDS011;22332;51.954;20.118;2022-11-21T16:05:01;78.70;;;38.50;;
35847;SDS011;22332;51.954;20.118;2022-11-21T16:08:04;90.70;;;45.10;;
35847;SDS011;22332;51.954;20.118;2022-11-21T16:11:10;87.50;;;46.00;;
35847;SDS011;22332;51.954;20.118;2022-11-21T16:14:18;85.60;;;44.00;;
35847;SDS011;22332;51.954;20.118;2022-11-21T16:17:20;84.30;;;42.50;;
35847;SDS011;22332;51.954;20.118;2022-11-21T16:20:23;86.80;;;43.20;;
35847;SDS011;22332;51.954;20.118;2022-11-21T16:23:26;85.20;;;42.90;;
35847;SDS011;22332;51.954;20.118;2022-11-21T16:26:28;87.50;;;43.90;;
35847;SDS011;22332;51.954;20.118;2022-11-21T16:29:31;82.60;;;42.10;;
35847;SDS011;22332;51.954;20.118;2022-11-21T16:32:34;80.10;;;41.80;;
35847;SDS011;22332;51.954;20.118;2022-11-21T16:35:37;73.40;;;39.40;;
35847;SDS011;22332;51.954;20.118;2022-11-21T16:38:41;75.90;;;39.70;;
35847;SDS011;22332;51.954;20.118;2022-11-21T16:41:44;71.80;;;36.90;;
35847;SDS011;22332;51.954;20.118;2022-11-21T16:44:49;62.70;;;33.60;;
35847;SDS011;22332;51.954;20.118;2022-11-21T16:47:52;68.00;;;36.30;;
35847;SDS011;22332;51.954;20.118;2022-11-21T16:50:54;65.90;;;36.00;;
35847;SDS011;22332;51.954;20.118;2022-11-21T16:54:09;67.10;;;37.00;;
35847;SDS011;22332;51.954;20.118;2022-11-21T16:57:11;75.30;;;38.90;;
35847;SDS011;22332;51.954;20.118;2022-11-21T17:00:15;70.50;;;38.30;;
35847;SDS011;22332;51.954;20.118;2022-11-21T17:03:19;70.90;;;38.00;;
35847;SDS011;22332;51.954;20.118;2022-11-21T17:06:22;77.10;;;38.10;;
35847;SDS011;22332;51.954;20.118;2022-11-21T17:09:27;72.90;;;37.90;;
35847;SDS011;22332;51.954;20.118;2022-11-21T17:12:29;80.00;;;39.20;;
35847;SDS011;22332;51.954;20.118;2022-11-21T17:15:39;96.20;;;43.80;;
35847;SDS011;22332;51.954;20.118;2022-11-21T17:18:41;77.50;;;37.50;;
35847;SDS011;22332;51.954;20.118;2022-11-21T17:21:45;120.00;;;54.60;;
35847;SDS011;22332;51.954;20.118;2022-11-21T17:24:47;121.80;;;58.00;;
35847;SDS011;22332;51.954;20.118;2022-11-21T17:27:52;190.70;;;80.70;;
35847;SDS011;22332;51.954;20.118;2022-11-21T17:30:55;141.20;;;62.10;;
35847;SDS011;22332;51.954;20.118;2022-11-21T17:33:58;131.80;;;56.60;;
35847;SDS011;22332;51.954;20.118;2022-11-21T17:37:02;114.20;;;54.50;;
35847;SDS011;22332;51.954;20.118;2022-11-21T17:40:09;104.60;;;52.80;;
35847;SDS011;22332;51.954;20.118;2022-11-21T17:43:12;89.80;;;47.90;;
35847;SDS011;22332;51.954;20.118;2022-11-21T17:46:16;87.60;;;46.50;;
35847;SDS011;22332;51.954;20.118;2022-11-21T17:49:20;92.60;;;51.10;;
35847;SDS011;22332;51.954;20.118;2022-11-21T17:52:23;100.40;;;53.00;;
35847;SDS011;22332;51.954;20.118;2022-11-21T17:55:26;80.40;;;40.40;;
35847;SDS011;22332;51.954;20.118;2022-11-21T17:58:29;93.10;;;45.20;;
35847;SDS011;22332;51.954;20.118;2022-11-21T18:01:32;104.10;;;52.50;;
35847;SDS011;22332;51.954;20.118;2022-11-21T18:04:35;85.00;;;43.90;;